Time,TemperatureF,DewpointF,PressureIn,WindDirection,WindDirectionDegrees,WindSpeedMPH,WindSpeedGustMPH,Humidity,HourlyPrecipIn,Conditions,Clouds,dailyrainin,SoftwareType,DateUTC
2013-02-01 00:01:00,40.5,28.1,30.05,West,270,4.0,4.6,61,0.00,,,0.00,WUHU21623XXSP,2013-02-01 05:01:00,
2013-02-01 00:02:00,40.5,28.1,30.05,West,270,4.0,4.6,61,0.00,,,0.00,WUHU21623XXSP,2013-02-01 05:02:00,
2013-02-01 00:11:00,40.5,28.1,30.05,West,270,4.0,4.6,61,0.00,,,0.00,WUHU21623XXSP,2013-02-01 05:11:00,
2013-02-01 00:16:00,40.8,28.4,30.05,SSW,202,3.8,6.5,61,0.00,,,0.00,WUHU21623XXSP,2013-02-01 05:16:00,
2013-02-01 00:21:00,40.8,28.4,30.05,SSW,202,9.6,11.1,61,0.00,,,0.00,WUHU21623XXSP,2013-02-01 05:21:00,
2013-02-01 00:26:00,41.2,28.8,30.05,SSW,202,0.9,11.1,61,0.00,,,0.00,WUHU21623XXSP,2013-02-01 05:26:00,
2013-02-01 00:31:00,41.2,28.4,30.05,West,270,0.0,6.8,60,0.00,,,0.00,WUHU21623XXSP,2013-02-01 05:31:00,
2013-02-01 00:36:00,41.5,28.7,30.05,West,270,0.0,3.3,60,0.00,,,0.00,WUHU21623XXSP,2013-02-01 05:36:00,
2013-02-01 00:41:00,41.4,28.9,30.05,SSW,202,6.1,7.0,61,0.00,,,0.00,WUHU21623XXSP,2013-02-01 05:41:00,
2013-02-01 00:46:00,41.5,28.7,30.05,South,180,1.7,7.0,60,0.00,,,0.00,WUHU21623XXSP,2013-02-01 05:46:00,
2013-02-01 00:51:00,41.5,28.7,30.06,West,270,0.0,14.7,60,0.00,,,0.00,WUHU21623XXSP,2013-02-01 05:51:00,
2013-02-01 00:56:00,41.5,29.1,30.07,West,270,3.3,14.7,61,0.00,,,0.00,WUHU21623XXSP,2013-02-01 05:56:00,
2013-02-01 01:01:00,41.7,28.9,30.07,South,180,2.3,7.6,60,0.00,,,0.00,WUHU21623XXSP,2013-02-01 06:01:00,
2013-02-01 01:10:00,41.7,28.9,30.07,South,180,2.3,2.7,60,0.00,,,0.00,WUHU21623XXSP,2013-02-01 06:10:00,
2013-02-01 01:15:00,41.7,30.0,30.07,WNW,292,2.9,10.4,63,0.00,,,0.00,WUHU21623XXSP,2013-02-01 06:15:00,
2013-02-01 01:20:00,41.7,31.2,30.09,West,270,2.6,10.4,66,0.00,,,0.00,WUHU21623XXSP,2013-02-01 06:20:00,
2013-02-01 01:25:00,41.5,32.1,30.09,WNW,292,7.8,9.0,69,0.00,,,0.00,WUHU21623XXSP,2013-02-01 06:25:00,
2013-02-01 01:30:00,40.6,32.3,30.09,West,270,2.9,9.0,72,0.00,,,0.00,WUHU21623XXSP,2013-02-01 06:30:00,
2013-02-01 01:35:00,40.1,32.1,30.10,WNW,292,3.5,9.0,73,0.00,,,0.00,WUHU21623XXSP,2013-02-01 06:35:00,
2013-02-01 01:40:00,39.9,32.6,30.10,WNW,292,2.1,4.1,75,0.00,,,0.00,WUHU21623XXSP,2013-02-01 06:40:00,
2013-02-01 01:45:00,39.0,31.7,30.11,WNW,292,5.2,16.8,75,0.00,,,0.00,WUHU21623XXSP,2013-02-01 06:45:00,
2013-02-01 01:50:00,38.3,31.0,30.12,WNW,292,3.5,16.8,75,0.00,,,0.00,WUHU21623XXSP,2013-02-01 06:50:00,
2013-02-01 01:55:00,37.4,30.2,30.12,WNW,292,4.7,15.2,75,0.00,,,0.00,WUHU21623XXSP,2013-02-01 06:55:00,
2013-02-01 02:00:00,36.5,29.6,30.13,WNW,292,5.6,15.2,76,0.00,,,0.00,WUHU21623XXSP,2013-02-01 07:00:00,
2013-02-01 02:05:00,36.5,29.6,30.13,WNW,292,5.6,6.5,76,0.00,,,0.00,WUHU21623XXSP,2013-02-01 07:05:00,
2013-02-01 02:10:00,36.5,29.6,30.13,WNW,292,5.6,6.5,76,0.00,,,0.00,WUHU21623XXSP,2013-02-01 07:10:00,
2013-02-01 02:15:00,35.2,29.3,30.15,North,0,2.6,6.5,79,0.00,,,0.00,WUHU21623XXSP,2013-02-01 07:15:00,
2013-02-01 02:20:00,34.9,29.3,30.15,West,270,1.2,6.5,80,0.00,,,0.00,WUHU21623XXSP,2013-02-01 07:20:00,
2013-02-01 02:25:00,34.7,29.4,30.15,WNW,292,0.0,3.0,81,0.00,,,0.00,WUHU21623XXSP,2013-02-01 07:25:00,
2013-02-01 02:30:00,34.3,29.3,30.16,North,0,0.0,1.9,82,0.00,,,0.00,WUHU21623XXSP,2013-02-01 07:30:00,
2013-02-01 02:35:00,34.3,29.6,30.16,WNW,292,0.0,0.0,83,0.00,,,0.00,WUHU21623XXSP,2013-02-01 07:35:00,
2013-02-01 02:40:00,34.3,29.6,30.16,WNW,292,1.7,1.9,83,0.00,,,0.00,WUHU21623XXSP,2013-02-01 07:40:00,
2013-02-01 02:45:00,34.3,29.6,30.16,North,0,0.0,1.9,83,0.00,,,0.00,WUHU21623XXSP,2013-02-01 07:45:00,
2013-02-01 02:50:00,34.0,29.3,30.17,North,0,2.1,2.4,83,0.00,,,0.00,WUHU21623XXSP,2013-02-01 07:50:00,
2013-02-01 02:55:00,33.6,28.6,30.16,WNW,292,1.7,4.1,82,0.00,,,0.00,WUHU21623XXSP,2013-02-01 07:55:00,
2013-02-01 03:00:00,33.4,28.5,30.16,WNW,292,0.0,4.4,82,0.00,,,0.00,WUHU21623XXSP,2013-02-01 08:00:00,
2013-02-01 03:05:00,33.4,28.5,30.16,WNW,292,0.0,4.4,82,0.00,,,0.00,WUHU21623XXSP,2013-02-01 08:05:00,
2013-02-01 03:10:00,33.4,28.5,30.17,WNW,292,0.0,0.0,82,0.00,,,0.00,WUHU21623XXSP,2013-02-01 08:10:00,
2013-02-01 03:15:00,33.1,27.9,30.18,WNW,292,9.9,11.4,81,0.00,,,0.00,WUHU21623XXSP,2013-02-01 08:15:00,
2013-02-01 03:20:00,32.5,27.1,30.19,North,0,1.7,11.4,80,0.00,,,0.00,WUHU21623XXSP,2013-02-01 08:20:00,
2013-02-01 03:25:00,32.2,26.4,30.20,North,0,4.9,11.4,79,0.00,,,0.00,WUHU21623XXSP,2013-02-01 08:25:00,
2013-02-01 03:30:00,31.8,26.1,30.20,WNW,292,8.2,9.5,79,0.00,,,0.00,WUHU21623XXSP,2013-02-01 08:30:00,
2013-02-01 03:35:00,31.8,25.8,30.20,North,0,5.2,9.5,78,0.00,,,0.00,WUHU21623XXSP,2013-02-01 08:35:00,
2013-02-01 03:40:00,31.8,25.4,30.20,WNW,292,0.0,9.5,77,0.00,,,0.00,WUHU21623XXSP,2013-02-01 08:40:00,
2013-02-01 03:45:00,31.6,24.9,30.20,North,0,5.8,6.8,76,0.00,,,0.00,WUHU21623XXSP,2013-02-01 08:45:00,
2013-02-01 03:50:00,31.6,24.6,30.20,WNW,292,6.1,7.0,75,0.00,,,0.00,WUHU21623XXSP,2013-02-01 08:50:00,
2013-02-01 03:55:00,31.3,23.3,30.21,West,270,0.0,7.0,72,0.00,,,0.00,WUHU21623XXSP,2013-02-01 08:55:00,
2013-02-01 04:00:00,31.1,22.5,30.21,WNW,292,0.0,7.0,70,0.00,,,0.00,WUHU21623XXSP,2013-02-01 09:00:00,
2013-02-01 04:05:00,31.1,22.5,30.21,WNW,292,0.0,0.0,70,0.00,,,0.00,WUHU21623XXSP,2013-02-01 09:05:00,
2013-02-01 04:10:00,31.1,22.5,30.21,WNW,292,0.0,0.0,70,0.00,,,0.00,WUHU21623XXSP,2013-02-01 09:10:00,
2013-02-01 04:15:00,30.4,20.7,30.22,West,270,0.0,5.7,67,0.00,,,0.00,WUHU21623XXSP,2013-02-01 09:15:00,
2013-02-01 04:20:00,30.2,20.5,30.22,WNW,292,4.4,5.7,67,0.00,,,0.00,WUHU21623XXSP,2013-02-01 09:20:00,
2013-02-01 04:25:00,30.0,20.7,30.22,WNW,292,0.0,5.1,68,0.00,,,0.00,WUHU21623XXSP,2013-02-01 09:25:00,
2013-02-01 04:30:00,30.0,20.7,30.22,WNW,292,2.6,5.1,68,0.00,,,0.00,WUHU21623XXSP,2013-02-01 09:30:00,
2013-02-01 04:35:00,29.5,20.2,30.24,North,0,4.9,5.7,68,0.00,,,0.00,WUHU21623XXSP,2013-02-01 09:35:00,
2013-02-01 04:40:00,28.9,19.0,30.25,West,270,1.7,5.7,66,0.00,,,0.00,WUHU21623XXSP,2013-02-01 09:40:00,
2013-02-01 04:45:00,28.6,18.7,30.25,WNW,292,0.0,5.7,66,0.00,,,0.00,WUHU21623XXSP,2013-02-01 09:45:00,
2013-02-01 04:50:00,28.6,18.7,30.25,WNW,292,1.7,5.4,66,0.00,,,0.00,WUHU21623XXSP,2013-02-01 09:50:00,
2013-02-01 04:55:00,28.0,18.1,30.25,WNW,292,2.3,4.6,66,0.00,,,0.00,WUHU21623XXSP,2013-02-01 09:55:00,
2013-02-01 05:00:00,27.7,18.1,30.25,WNW,292,2.1,6.0,67,0.00,,,0.00,WUHU21623XXSP,2013-02-01 10:00:00,
2013-02-01 05:05:00,27.7,18.1,30.25,WNW,292,2.1,6.0,67,0.00,,,0.00,WUHU21623XXSP,2013-02-01 10:05:00,
2013-02-01 05:10:00,27.7,18.1,30.25,WNW,292,2.1,2.4,67,0.00,,,0.00,WUHU21623XXSP,2013-02-01 10:10:00,
2013-02-01 05:15:00,27.3,18.1,30.26,North,0,2.6,3.0,68,0.00,,,0.00,WUHU21623XXSP,2013-02-01 10:15:00,
2013-02-01 05:20:00,27.1,18.0,30.26,WNW,292,2.9,3.8,68,0.00,,,0.00,WUHU21623XXSP,2013-02-01 10:20:00,
2013-02-01 05:25:00,26.4,16.9,30.26,North,0,2.9,4.4,67,0.00,,,0.00,WUHU21623XXSP,2013-02-01 10:25:00,
2013-02-01 05:30:00,26.2,16.7,30.26,North,0,2.3,7.6,67,0.00,,,0.00,WUHU21623XXSP,2013-02-01 10:30:00,
2013-02-01 05:35:00,26.1,16.9,30.27,WNW,292,3.3,7.6,68,0.00,,,0.00,WUHU21623XXSP,2013-02-01 10:35:00,
2013-02-01 05:40:00,25.9,16.7,30.28,North,0,0.0,6.8,68,0.00,,,0.00,WUHU21623XXSP,2013-02-01 10:40:00,
2013-02-01 05:45:00,25.5,15.7,30.28,North,0,4.7,6.8,66,0.00,,,0.00,WUHU21623XXSP,2013-02-01 10:45:00,
2013-02-01 05:50:00,25.0,15.1,30.29,North,0,3.3,5.4,66,0.00,,,0.00,WUHU21623XXSP,2013-02-01 10:50:00,
2013-02-01 05:55:00,24.4,14.3,30.30,North,0,4.0,7.6,65,0.00,,,0.00,WUHU21623XXSP,2013-02-01 10:55:00,
2013-02-01 06:00:00,24.1,12.9,30.30,North,0,5.2,10.4,62,0.00,,,0.00,WUHU21623XXSP,2013-02-01 11:00:00,
2013-02-01 06:05:00,24.1,12.9,30.30,North,0,5.2,10.4,62,0.00,,,0.00,WUHU21623XXSP,2013-02-01 11:05:00,
2013-02-01 06:10:00,23.5,12.0,30.30,WNW,292,3.3,6.0,61,0.00,,,0.00,WUHU21623XXSP,2013-02-01 11:10:00,
2013-02-01 06:15:00,23.2,12.0,30.31,WNW,292,6.6,7.6,62,0.00,,,0.00,WUHU21623XXSP,2013-02-01 11:15:00,
2013-02-01 06:20:00,22.8,11.7,30.31,WNW,292,1.7,7.6,62,0.00,,,0.00,WUHU21623XXSP,2013-02-01 11:20:00,
2013-02-01 06:25:00,22.6,11.9,30.32,WNW,292,2.9,7.6,63,0.00,,,0.00,WUHU21623XXSP,2013-02-01 11:25:00,
2013-02-01 06:30:00,22.5,11.7,30.33,WNW,292,0.0,5.4,63,0.00,,,0.00,WUHU21623XXSP,2013-02-01 11:30:00,
2013-02-01 06:35:00,22.1,11.7,30.33,North,0,3.3,3.8,64,0.00,,,0.00,WUHU21623XXSP,2013-02-01 11:35:00,
2013-02-01 06:40:00,21.9,11.5,30.33,West,270,0.0,3.8,64,0.00,,,0.00,WUHU21623XXSP,2013-02-01 11:40:00,
2013-02-01 06:45:00,21.7,11.7,30.34,West,270,2.3,3.8,65,0.00,,,0.00,WUHU21623XXSP,2013-02-01 11:45:00,
2013-02-01 06:50:00,21.6,11.6,30.35,West,270,0.0,6.0,65,0.00,,,0.00,WUHU21623XXSP,2013-02-01 11:50:00,
2013-02-01 06:55:00,21.7,11.7,30.35,West,270,0.0,6.0,65,0.00,,,0.00,WUHU21623XXSP,2013-02-01 11:55:00,
2013-02-01 07:00:00,21.7,12.1,30.35,NNE,22,0.0,4.4,66,0.00,,,0.00,WUHU21623XXSP,2013-02-01 12:00:00,
2013-02-01 07:05:00,21.7,12.1,30.35,NNE,22,4.4,5.1,66,0.00,,,0.00,WUHU21623XXSP,2013-02-01 12:05:00,
2013-02-01 07:10:00,21.7,12.1,30.35,WNW,292,0.0,5.1,66,0.00,,,0.00,WUHU21623XXSP,2013-02-01 12:10:00,
2013-02-01 07:15:00,21.7,12.1,30.36,WNW,292,0.0,4.1,66,0.00,,,0.00,WUHU21623XXSP,2013-02-01 12:15:00,
2013-02-01 07:20:00,21.6,11.9,30.36,WNW,292,0.0,0.0,66,0.00,,,0.00,WUHU21623XXSP,2013-02-01 12:20:00,
2013-02-01 07:25:00,21.6,11.9,30.36,WNW,292,3.8,4.4,66,0.00,,,0.00,WUHU21623XXSP,2013-02-01 12:25:00,
2013-02-01 07:30:00,21.4,11.7,30.37,WNW,292,0.0,4.4,66,0.00,,,0.00,WUHU21623XXSP,2013-02-01 12:30:00,
2013-02-01 07:35:00,21.4,12.1,30.37,North,0,3.3,4.4,67,0.00,,,0.00,WUHU21623XXSP,2013-02-01 12:35:00,
2013-02-01 07:40:00,21.4,11.7,30.37,North,0,2.1,5.7,67,0.00,,,0.00,WUHU21623XXSP,2013-02-01 12:40:00,
2013-02-01 07:45:00,21.2,12.2,30.37,WNW,292,0.0,5.7,68,0.00,,,0.00,WUHU21623XXSP,2013-02-01 12:45:00,
2013-02-01 07:50:00,21.4,12.4,30.37,WNW,292,2.9,3.8,68,0.00,,,0.00,WUHU21623XXSP,2013-02-01 12:50:00,
2013-02-01 07:55:00,21.4,12.4,30.38,West,270,0.0,3.8,68,0.00,,,0.00,WUHU21623XXSP,2013-02-01 12:55:00,
2013-02-01 08:00:00,21.0,12.1,30.38,WNW,292,2.9,3.8,68,0.00,,,0.00,WUHU21623XXSP,2013-02-01 13:00:00,
2013-02-01 08:05:00,21.0,12.1,30.39,North,0,0.0,5.7,68,0.00,,,0.00,WUHU21623XXSP,2013-02-01 13:05:00,
2013-02-01 08:10:00,21.0,12.1,30.39,North,0,0.0,5.7,68,0.00,,,0.00,WUHU21623XXSP,2013-02-01 13:10:00,
2013-02-01 08:15:00,21.0,12.1,30.39,WNW,292,0.0,2.7,68,0.00,,,0.00,WUHU21623XXSP,2013-02-01 13:15:00,
2013-02-01 08:20:00,21.0,12.1,30.39,North,0,0.0,2.7,68,0.00,,,0.00,WUHU21623XXSP,2013-02-01 13:20:00,
2013-02-01 08:25:00,21.0,12.1,30.39,WNW,292,0.0,3.0,68,0.00,,,0.00,WUHU21623XXSP,2013-02-01 13:25:00,
2013-02-01 08:30:00,20.8,11.9,30.39,WNW,292,0.0,6.8,68,0.00,,,0.00,WUHU21623XXSP,2013-02-01 13:30:00,
2013-02-01 08:35:00,21.0,12.1,30.40,NNE,22,0.0,6.8,68,0.00,,,0.00,WUHU21623XXSP,2013-02-01 13:35:00,
2013-02-01 08:40:00,21.0,12.4,30.40,NNE,22,1.7,3.3,69,0.00,,,0.00,WUHU21623XXSP,2013-02-01 13:40:00,
2013-02-01 08:45:00,21.4,12.7,30.40,WNW,292,0.0,1.9,69,0.00,,,0.00,WUHU21623XXSP,2013-02-01 13:45:00,
2013-02-01 08:50:00,22.3,13.6,30.40,West,270,0.0,1.9,69,0.00,,,0.00,WUHU21623XXSP,2013-02-01 13:50:00,
2013-02-01 08:55:00,23.2,14.5,30.40,North,0,0.0,0.0,69,0.00,,,0.00,WUHU21623XXSP,2013-02-01 13:55:00,
2013-02-01 09:01:00,23.9,14.8,30.41,North,0,0.0,0.0,68,0.00,,,0.00,WUHU21623XXSP,2013-02-01 14:01:00,
2013-02-01 09:06:00,24.1,14.3,30.41,North,0,0.0,2.7,66,0.00,,,0.00,WUHU21623XXSP,2013-02-01 14:06:00,
2013-02-01 09:11:00,23.7,13.6,30.41,WNW,292,0.0,2.7,65,0.00,,,0.00,WUHU21623XXSP,2013-02-01 14:11:00,
2013-02-01 09:16:00,23.7,13.6,30.41,West,270,0.0,0.0,65,0.00,,,0.00,WUHU21623XXSP,2013-02-01 14:16:00,
2013-02-01 09:21:00,23.9,13.8,30.41,WNW,292,0.0,0.0,65,0.00,,,0.00,WUHU21623XXSP,2013-02-01 14:21:00,
2013-02-01 09:26:00,23.5,13.1,30.41,North,0,0.0,4.4,64,0.00,,,0.00,WUHU21623XXSP,2013-02-01 14:26:00,
2013-02-01 09:31:00,23.5,13.4,30.42,WNW,292,0.0,4.4,65,0.00,,,0.00,WUHU21623XXSP,2013-02-01 14:31:00,
2013-02-01 09:36:00,23.9,13.8,30.42,NNE,22,3.8,4.4,65,0.00,,,0.00,WUHU21623XXSP,2013-02-01 14:36:00,
2013-02-01 09:41:00,24.4,14.3,30.43,West,270,0.0,4.4,65,0.00,,,0.00,WUHU21623XXSP,2013-02-01 14:41:00,
2013-02-01 09:46:00,25.2,14.6,30.42,SSW,202,2.6,4.4,64,0.00,,,0.00,WUHU21623XXSP,2013-02-01 14:46:00,
2013-02-01 09:51:00,25.3,14.4,30.43,North,0,0.0,3.3,63,0.00,,,0.00,WUHU21623XXSP,2013-02-01 14:51:00,
2013-02-01 09:56:00,26.1,14.8,30.43,North,0,2.6,3.3,62,0.00,,,0.00,WUHU21623XXSP,2013-02-01 14:56:00,
2013-02-01 10:01:00,25.5,13.7,30.43,North,0,0.0,3.0,60,0.00,,,0.00,WUHU21623XXSP,2013-02-01 15:01:00,
2013-02-01 10:06:00,26.1,14.8,30.43,North,0,2.9,3.3,62,0.00,,,0.00,WUHU21623XXSP,2013-02-01 15:06:00,
2013-02-01 10:11:00,26.4,14.4,30.43,North,0,4.0,4.6,60,0.00,,,0.00,WUHU21623XXSP,2013-02-01 15:11:00,
2013-02-01 10:16:00,25.7,12.9,30.43,WNW,292,0.0,4.6,58,0.00,,,0.00,WUHU21623XXSP,2013-02-01 15:16:00,
2013-02-01 10:21:00,26.1,13.6,30.43,North,0,0.0,4.6,59,0.00,,,0.00,WUHU21623XXSP,2013-02-01 15:21:00,
2013-02-01 10:26:00,26.2,13.0,30.43,North,0,1.2,4.4,57,0.00,,,0.00,WUHU21623XXSP,2013-02-01 15:26:00,
2013-02-01 10:31:00,26.4,13.6,30.44,West,270,0.0,4.4,58,0.00,,,0.00,WUHU21623XXSP,2013-02-01 15:31:00,
2013-02-01 10:36:00,27.0,14.1,30.44,North,0,1.7,1.9,58,0.00,,,0.00,WUHU21623XXSP,2013-02-01 15:36:00,
2013-02-01 10:41:00,27.1,13.4,30.44,North,0,0.0,1.9,56,0.00,,,0.00,WUHU21623XXSP,2013-02-01 15:41:00,
2013-02-01 10:46:00,27.7,14.0,30.44,ESE,112,0.0,3.3,56,0.00,,,0.00,WUHU21623XXSP,2013-02-01 15:46:00,
2013-02-01 10:51:00,27.3,13.2,30.44,East,90,4.0,4.6,55,0.00,,,0.00,WUHU21623XXSP,2013-02-01 15:51:00,
2013-02-01 10:56:00,27.3,13.6,30.43,North,0,0.0,4.6,56,0.00,,,0.00,WUHU21623XXSP,2013-02-01 15:56:00,
2013-02-01 11:01:00,27.7,14.0,30.43,WNW,292,0.0,5.4,56,0.00,,,0.00,WUHU21623XXSP,2013-02-01 16:01:00,
2013-02-01 11:06:00,28.0,14.3,30.43,WNW,292,0.0,5.4,56,0.00,,,0.00,WUHU21623XXSP,2013-02-01 16:06:00,
2013-02-01 11:11:00,28.2,14.5,30.43,SSW,202,1.7,3.0,56,0.00,,,0.00,WUHU21623XXSP,2013-02-01 16:11:00,
2013-02-01 11:16:00,28.6,15.3,30.44,WNW,292,0.0,4.1,57,0.00,,,0.00,WUHU21623XXSP,2013-02-01 16:16:00,
2013-02-01 11:21:00,28.9,15.2,30.43,NNE,22,2.1,4.1,56,0.00,,,0.00,WUHU21623XXSP,2013-02-01 16:21:00,
2013-02-01 11:26:00,28.6,14.4,30.43,West,270,6.4,7.4,55,0.00,,,0.00,WUHU21623XXSP,2013-02-01 16:26:00,
2013-02-01 11:31:00,28.8,14.6,30.44,West,270,1.7,7.4,55,0.00,,,0.00,WUHU21623XXSP,2013-02-01 16:31:00,
2013-02-01 11:36:00,28.2,14.1,30.43,SSW,202,3.3,7.4,55,0.00,,,0.00,WUHU21623XXSP,2013-02-01 16:36:00,
2013-02-01 11:41:00,28.6,14.8,30.43,SSW,202,2.9,3.8,56,0.00,,,0.00,WUHU21623XXSP,2013-02-01 16:41:00,
2013-02-01 11:46:00,28.8,14.6,30.43,SSW,202,0.0,3.8,55,0.00,,,0.00,WUHU21623XXSP,2013-02-01 16:46:00,
2013-02-01 11:51:00,28.9,14.8,30.44,WNW,292,0.0,3.3,55,0.00,,,0.00,WUHU21623XXSP,2013-02-01 16:51:00,
2013-02-01 11:56:00,28.9,14.8,30.44,South,180,4.4,5.7,55,0.00,,,0.00,WUHU21623XXSP,2013-02-01 16:56:00,
2013-02-01 12:01:00,29.1,14.5,30.44,SSW,202,1.4,5.7,54,0.00,,,0.00,WUHU21623XXSP,2013-02-01 17:01:00,
2013-02-01 12:06:00,30.0,15.7,30.43,West,270,2.6,5.1,55,0.00,,,0.00,WUHU21623XXSP,2013-02-01 17:06:00,
2013-02-01 12:11:00,30.4,15.6,30.43,West,270,0.0,6.8,54,0.00,,,0.00,WUHU21623XXSP,2013-02-01 17:11:00,
2013-02-01 12:16:00,30.0,14.9,30.43,West,270,0.0,6.8,53,0.00,,,0.00,WUHU21623XXSP,2013-02-01 17:16:00,
2013-02-01 12:21:00,30.4,14.4,30.43,West,270,5.8,6.8,51,0.00,,,0.00,WUHU21623XXSP,2013-02-01 17:21:00,
2013-02-01 12:26:00,30.4,14.4,30.43,North,0,4.0,6.8,51,0.00,,,0.00,WUHU21623XXSP,2013-02-01 17:26:00,
2013-02-01 12:31:00,30.6,14.6,30.43,ESE,112,0.0,6.8,51,0.00,,,0.00,WUHU21623XXSP,2013-02-01 17:31:00,
2013-02-01 12:36:00,30.4,14.0,30.43,NNE,22,1.7,4.6,50,0.00,,,0.00,WUHU21623XXSP,2013-02-01 17:36:00,
2013-02-01 12:41:00,30.7,14.7,30.42,South,180,0.0,6.0,51,0.00,,,0.00,WUHU21623XXSP,2013-02-01 17:41:00,
2013-02-01 12:46:00,31.3,14.8,30.43,WNW,292,1.7,6.0,50,0.00,,,0.00,WUHU21623XXSP,2013-02-01 17:46:00,
2013-02-01 12:51:00,31.8,15.3,30.42,WNW,292,0.0,3.0,50,0.00,,,0.00,WUHU21623XXSP,2013-02-01 17:51:00,
2013-02-01 12:56:00,31.6,14.6,30.42,WNW,292,0.0,6.8,49,0.00,,,0.00,WUHU21623XXSP,2013-02-01 17:56:00,
2013-02-01 13:01:00,31.8,14.8,30.42,North,0,2.3,6.8,49,0.00,,,0.00,WUHU21623XXSP,2013-02-01 18:01:00,
2013-02-01 13:06:00,32.4,15.8,30.42,West,270,4.9,5.7,50,0.00,,,0.00,WUHU21623XXSP,2013-02-01 18:06:00,
2013-02-01 13:11:00,32.2,15.1,30.41,WNW,292,1.7,5.7,49,0.00,,,0.00,WUHU21623XXSP,2013-02-01 18:11:00,
2013-02-01 13:16:00,32.7,15.6,30.42,WNW,292,1.7,5.7,49,0.00,,,0.00,WUHU21623XXSP,2013-02-01 18:16:00,
2013-02-01 13:21:00,32.7,15.6,30.41,WNW,292,1.7,2.4,49,0.00,,,0.00,WUHU21623XXSP,2013-02-01 18:21:00,
2013-02-01 13:26:00,33.6,15.9,30.41,North,0,0.0,4.4,48,0.00,,,0.00,WUHU21623XXSP,2013-02-01 18:26:00,
2013-02-01 13:31:00,33.4,15.2,30.40,West,270,0.0,4.4,47,0.00,,,0.00,WUHU21623XXSP,2013-02-01 18:31:00,
2013-02-01 13:36:00,32.7,15.1,30.40,WNW,292,0.0,8.1,48,0.00,,,0.00,WUHU21623XXSP,2013-02-01 18:36:00,
2013-02-01 13:41:00,33.1,15.4,30.40,WNW,292,0.0,8.1,48,0.00,,,0.00,WUHU21623XXSP,2013-02-01 18:41:00,
2013-02-01 13:46:00,33.3,15.1,30.41,North,0,4.9,5.7,47,0.00,,,0.00,WUHU21623XXSP,2013-02-01 18:46:00,
2013-02-01 13:51:00,33.6,15.4,30.40,West,270,3.8,5.7,47,0.00,,,0.00,WUHU21623XXSP,2013-02-01 18:51:00,
2013-02-01 13:56:00,33.6,14.9,30.40,West,270,1.7,7.4,46,0.00,,,0.00,WUHU21623XXSP,2013-02-01 18:56:00,
2013-02-01 14:01:00,32.7,14.1,30.40,WNW,292,0.0,7.4,46,0.00,,,0.00,WUHU21623XXSP,2013-02-01 19:01:00,
2013-02-01 14:06:00,32.4,13.7,30.39,ESE,112,0.0,4.4,46,0.00,,,0.00,WUHU21623XXSP,2013-02-01 19:06:00,
2013-02-01 14:11:00,32.5,14.4,30.39,SSW,202,2.9,4.4,47,0.00,,,0.00,WUHU21623XXSP,2013-02-01 19:11:00,
2013-02-01 14:16:00,32.7,14.6,30.39,North,0,0.0,4.4,47,0.00,,,0.00,WUHU21623XXSP,2013-02-01 19:16:00,
2013-02-01 14:21:00,32.9,14.2,30.39,WNW,292,0.0,5.1,46,0.00,,,0.00,WUHU21623XXSP,2013-02-01 19:21:00,
2013-02-01 14:26:00,32.5,13.9,30.38,SSW,202,0.0,5.1,46,0.00,,,0.00,WUHU21623XXSP,2013-02-01 19:26:00,
2013-02-01 14:31:00,33.3,14.6,30.38,West,270,0.0,0.0,46,0.00,,,0.00,WUHU21623XXSP,2013-02-01 19:31:00,
2013-02-01 14:36:00,32.9,14.2,30.38,West,270,0.0,10.8,46,0.00,,,0.00,WUHU21623XXSP,2013-02-01 19:36:00,
2013-02-01 14:41:00,32.7,14.6,30.38,West,270,3.8,10.8,47,0.00,,,0.00,WUHU21623XXSP,2013-02-01 19:41:00,
2013-02-01 14:46:00,33.1,14.4,30.39,WNW,292,1.2,4.4,46,0.00,,,0.00,WUHU21623XXSP,2013-02-01 19:46:00,
2013-02-01 14:51:00,33.6,15.4,30.38,East,90,0.0,4.4,47,0.00,,,0.00,WUHU21623XXSP,2013-02-01 19:51:00,
2013-02-01 14:56:00,33.4,15.2,30.39,North,0,1.7,3.0,47,0.00,,,0.00,WUHU21623XXSP,2013-02-01 19:56:00,
2013-02-01 15:01:00,33.4,14.7,30.39,WNW,292,0.0,3.0,46,0.00,,,0.00,WUHU21623XXSP,2013-02-01 20:01:00,
2013-02-01 15:06:00,33.4,14.7,30.39,SSW,202,2.1,2.4,46,0.00,,,0.00,WUHU21623XXSP,2013-02-01 20:06:00,
2013-02-01 15:11:00,33.3,15.1,30.39,West,270,0.0,2.4,47,0.00,,,0.00,WUHU21623XXSP,2013-02-01 20:11:00,
2013-02-01 15:16:00,32.7,14.6,30.39,North,0,0.0,5.1,47,0.00,,,0.00,WUHU21623XXSP,2013-02-01 20:16:00,
2013-02-01 15:21:00,33.3,15.1,30.39,WNW,292,5.2,6.0,47,0.00,,,0.00,WUHU21623XXSP,2013-02-01 20:21:00,
2013-02-01 15:26:00,33.1,14.4,30.39,WNW,292,0.0,6.0,46,0.00,,,0.00,WUHU21623XXSP,2013-02-01 20:26:00,
2013-02-01 15:31:00,33.6,15.4,30.39,WNW,292,3.5,6.0,47,0.00,,,0.00,WUHU21623XXSP,2013-02-01 20:31:00,
2013-02-01 15:36:00,33.6,14.9,30.39,WNW,292,0.0,4.6,46,0.00,,,0.00,WUHU21623XXSP,2013-02-01 20:36:00,
2013-02-01 15:41:00,33.6,14.4,30.39,WNW,292,3.3,4.6,45,0.00,,,0.00,WUHU21623XXSP,2013-02-01 20:41:00,
2013-02-01 15:46:00,33.3,13.6,30.39,SSW,202,0.0,4.4,44,0.00,,,0.00,WUHU21623XXSP,2013-02-01 20:46:00,
2013-02-01 15:51:00,33.1,13.9,30.39,WNW,292,0.0,4.4,45,0.00,,,0.00,WUHU21623XXSP,2013-02-01 20:51:00,
2013-02-01 15:56:00,32.9,12.7,30.39,WNW,292,2.1,2.4,44,0.00,,,0.00,WUHU21623XXSP,2013-02-01 20:56:00,
2013-02-01 16:01:00,33.1,13.9,30.39,NNE,22,0.0,2.4,45,0.00,,,0.00,WUHU21623XXSP,2013-02-01 21:01:00,
2013-02-01 16:06:00,33.1,13.9,30.39,West,270,1.7,2.4,45,0.00,,,0.00,WUHU21623XXSP,2013-02-01 21:06:00,
2013-02-01 16:11:00,32.9,13.7,30.38,West,270,0.0,1.9,45,0.00,,,0.00,WUHU21623XXSP,2013-02-01 21:11:00,
2013-02-01 16:16:00,33.1,14.4,30.38,West,270,0.0,1.9,46,0.00,,,0.00,WUHU21623XXSP,2013-02-01 21:16:00,
2013-02-01 16:21:00,33.1,13.9,30.38,SSW,202,0.0,0.0,45,0.00,,,0.00,WUHU21623XXSP,2013-02-01 21:21:00,
2013-02-01 16:26:00,32.7,13.6,30.38,South,180,0.0,0.0,45,0.00,,,0.00,WUHU21623XXSP,2013-02-01 21:26:00,
2013-02-01 16:31:00,32.5,13.4,30.38,WNW,292,0.0,1.7,45,0.00,,,0.00,WUHU21623XXSP,2013-02-01 21:31:00,
2013-02-01 16:36:00,32.4,13.7,30.38,North,0,1.7,1.9,46,0.00,,,0.00,WUHU21623XXSP,2013-02-01 21:36:00,
2013-02-01 16:41:00,32.4,13.7,30.38,West,270,13.6,15.8,46,0.00,,,0.00,WUHU21623XXSP,2013-02-01 21:41:00,
2013-02-01 16:47:00,32.2,13.6,30.38,SSW,202,0.0,15.8,46,0.00,,,0.00,WUHU21623XXSP,2013-02-01 21:47:00,
2013-02-01 16:52:00,32.2,13.6,30.38,West,270,3.3,15.8,46,0.00,,,0.00,WUHU21623XXSP,2013-02-01 21:52:00,
2013-02-01 16:57:00,32.2,13.6,30.38,WNW,292,0.0,3.8,46,0.00,,,0.00,WUHU21623XXSP,2013-02-01 21:57:00,
2013-02-01 17:02:00,32.2,13.6,30.38,North,0,0.0,3.8,46,0.00,,,0.00,WUHU21623XXSP,2013-02-01 22:02:00,
2013-02-01 17:07:00,31.8,13.3,30.38,North,0,0.0,0.0,46,0.00,,,0.00,WUHU21623XXSP,2013-02-01 22:07:00,
2013-02-01 17:12:00,31.8,13.8,30.38,West,270,1.7,1.9,47,0.00,,,0.00,WUHU21623XXSP,2013-02-01 22:12:00,
2013-02-01 17:17:00,31.6,13.6,30.38,West,270,0.0,1.9,47,0.00,,,0.00,WUHU21623XXSP,2013-02-01 22:17:00,
2013-02-01 17:22:00,31.8,14.3,30.38,West,270,0.0,1.9,48,0.00,,,0.00,WUHU21623XXSP,2013-02-01 22:22:00,
2013-02-01 17:27:00,31.3,13.8,30.38,West,270,2.9,3.3,48,0.00,,,0.00,WUHU21623XXSP,2013-02-01 22:27:00,
2013-02-01 17:32:00,31.3,13.3,30.38,SSW,202,3.5,4.1,47,0.00,,,0.00,WUHU21623XXSP,2013-02-01 22:32:00,
2013-02-01 17:37:00,31.3,12.8,30.38,North,0,0.0,4.1,46,0.00,,,0.00,WUHU21623XXSP,2013-02-01 22:37:00,
2013-02-01 17:42:00,31.1,13.1,30.38,North,0,0.0,4.1,47,0.00,,,0.00,WUHU21623XXSP,2013-02-01 22:42:00,
2013-02-01 17:47:00,30.7,12.8,30.38,North,0,0.0,0.0,47,0.00,,,0.00,WUHU21623XXSP,2013-02-01 22:47:00,
2013-02-01 17:52:00,30.7,12.8,30.38,North,0,0.0,0.0,47,0.00,,,0.00,WUHU21623XXSP,2013-02-01 22:52:00,
2013-02-01 17:57:00,30.4,13.0,30.38,WNW,292,0.0,0.0,48,0.00,,,0.00,WUHU21623XXSP,2013-02-01 22:57:00,
2013-02-01 18:02:00,30.4,13.5,30.38,North,0,0.0,0.0,49,0.00,,,0.00,WUHU21623XXSP,2013-02-01 23:02:00,
2013-02-01 18:07:00,30.0,13.2,30.38,WNW,292,0.0,0.0,49,0.00,,,0.00,WUHU21623XXSP,2013-02-01 23:07:00,
2013-02-01 18:12:00,29.8,13.5,30.38,North,0,0.0,0.0,50,0.00,,,0.00,WUHU21623XXSP,2013-02-01 23:12:00,
2013-02-01 18:17:00,29.8,13.5,30.38,North,0,0.0,0.0,50,0.00,,,0.00,WUHU21623XXSP,2013-02-01 23:17:00,
2013-02-01 18:22:00,29.5,13.2,30.38,WNW,292,0.0,0.0,50,0.00,,,0.00,WUHU21623XXSP,2013-02-01 23:22:00,
2013-02-01 18:27:00,29.5,13.2,30.38,WNW,292,0.0,0.0,50,0.00,,,0.00,WUHU21623XXSP,2013-02-01 23:27:00,
2013-02-01 18:32:00,29.5,13.2,30.38,WNW,292,0.0,0.0,50,0.00,,,0.00,WUHU21623XXSP,2013-02-01 23:32:00,
2013-02-01 18:37:00,29.3,13.0,30.39,WNW,292,0.0,0.0,50,0.00,,,0.00,WUHU21623XXSP,2013-02-01 23:37:00,
2013-02-01 18:42:00,29.5,14.0,30.39,WNW,292,0.0,1.9,52,0.00,,,0.00,WUHU21623XXSP,2013-02-01 23:42:00,
2013-02-01 18:47:00,29.5,14.4,30.39,WNW,292,0.0,1.9,53,0.00,,,0.00,WUHU21623XXSP,2013-02-01 23:47:00,
2013-02-01 18:52:00,29.5,14.4,30.39,WNW,292,0.0,0.0,53,0.00,,,0.00,WUHU21623XXSP,2013-02-01 23:52:00,
2013-02-01 18:57:00,29.1,14.1,30.39,WNW,292,2.1,2.4,53,0.00,,,0.00,WUHU21623XXSP,2013-02-01 23:57:00,
2013-02-01 19:02:00,29.1,14.1,30.39,WNW,292,0.0,2.4,53,0.00,,,0.00,WUHU21623XXSP,2013-02-02 00:02:00,
2013-02-01 19:07:00,29.1,14.5,30.39,WNW,292,0.0,2.4,54,0.00,,,0.00,WUHU21623XXSP,2013-02-02 00:07:00,
2013-02-01 19:12:00,28.9,14.3,30.40,WNW,292,0.0,2.7,54,0.00,,,0.00,WUHU21623XXSP,2013-02-02 00:12:00,
2013-02-01 19:17:00,28.8,14.2,30.40,WNW,292,0.0,2.7,54,0.00,,,0.00,WUHU21623XXSP,2013-02-02 00:17:00,
2013-02-01 19:22:00,28.9,14.3,30.40,WNW,292,3.8,4.4,54,0.00,,,0.00,WUHU21623XXSP,2013-02-02 00:22:00,
2013-02-01 19:27:00,28.8,14.2,30.40,WNW,292,0.0,4.4,54,0.00,,,0.00,WUHU21623XXSP,2013-02-02 00:27:00,
2013-02-01 19:32:00,28.8,14.2,30.40,North,0,0.0,4.4,54,0.00,,,0.00,WUHU21623XXSP,2013-02-02 00:32:00,
2013-02-01 19:37:00,28.6,14.4,30.41,North,0,0.0,0.0,55,0.00,,,0.00,WUHU21623XXSP,2013-02-02 00:37:00,
2013-02-01 19:42:00,28.4,14.3,30.40,WNW,292,0.0,0.0,55,0.00,,,0.00,WUHU21623XXSP,2013-02-02 00:42:00,
2013-02-01 19:47:00,28.2,14.1,30.41,WNW,292,0.0,0.0,55,0.00,,,0.00,WUHU21623XXSP,2013-02-02 00:47:00,
2013-02-01 19:52:00,28.0,14.3,30.41,North,0,1.4,1.7,56,0.00,,,0.00,WUHU21623XXSP,2013-02-02 00:52:00,
2013-02-01 19:57:00,28.0,14.3,30.41,WNW,292,0.0,1.7,56,0.00,,,0.00,WUHU21623XXSP,2013-02-02 00:57:00,
2013-02-01 20:02:00,27.9,14.1,30.41,North,0,1.7,1.9,56,0.00,,,0.00,WUHU21623XXSP,2013-02-02 01:02:00,
2013-02-01 20:07:00,28.0,14.3,30.41,WNW,292,0.0,1.9,56,0.00,,,0.00,WUHU21623XXSP,2013-02-02 01:07:00,
2013-02-01 20:12:00,27.7,14.4,30.40,NNE,22,0.0,1.9,57,0.00,,,0.00,WUHU21623XXSP,2013-02-02 01:12:00,
2013-02-01 20:17:00,27.5,14.2,30.40,North,0,0.0,0.0,57,0.00,,,0.00,WUHU21623XXSP,2013-02-02 01:17:00,
2013-02-01 20:22:00,27.3,14.0,30.40,North,0,0.0,0.0,57,0.00,,,0.00,WUHU21623XXSP,2013-02-02 01:22:00,
2013-02-01 20:27:00,27.1,14.3,30.40,North,0,0.0,0.0,58,0.00,,,0.00,WUHU21623XXSP,2013-02-02 01:27:00,
2013-02-01 20:32:00,26.8,13.9,30.40,North,0,0.0,0.0,58,0.00,,,0.00,WUHU21623XXSP,2013-02-02 01:32:00,
2013-02-01 20:37:00,26.4,13.6,30.40,WNW,292,0.0,0.0,58,0.00,,,0.00,WUHU21623XXSP,2013-02-02 01:37:00,
2013-02-01 20:42:00,26.2,13.8,30.40,North,0,0.0,0.0,59,0.00,,,0.00,WUHU21623XXSP,2013-02-02 01:42:00,
2013-02-01 20:47:00,26.1,13.6,30.40,North,0,1.7,1.9,59,0.00,,,0.00,WUHU21623XXSP,2013-02-02 01:47:00,
2013-02-01 20:52:00,26.2,14.2,30.40,WNW,292,1.7,1.9,60,0.00,,,0.00,WUHU21623XXSP,2013-02-02 01:52:00,
2013-02-01 20:57:00,26.4,14.0,30.40,WNW,292,0.0,1.9,59,0.00,,,0.00,WUHU21623XXSP,2013-02-02 01:57:00,
2013-02-01 21:02:00,26.4,14.0,30.40,WNW,292,0.0,3.0,59,0.00,,,0.00,WUHU21623XXSP,2013-02-02 02:02:00,
2013-02-01 21:07:00,26.6,13.7,30.40,West,270,0.0,3.0,58,0.00,,,0.00,WUHU21623XXSP,2013-02-02 02:07:00,
2013-02-01 21:12:00,26.4,14.0,30.40,NNE,22,0.0,0.0,59,0.00,,,0.00,WUHU21623XXSP,2013-02-02 02:12:00,
2013-02-01 21:17:00,26.4,14.4,30.40,North,0,0.0,0.0,60,0.00,,,0.00,WUHU21623XXSP,2013-02-02 02:17:00,
2013-02-01 21:22:00,26.2,14.6,30.40,WNW,292,0.0,0.0,61,0.00,,,0.00,WUHU21623XXSP,2013-02-02 02:22:00,
2013-02-01 21:27:00,26.1,14.4,30.40,North,0,2.6,3.0,61,0.00,,,0.00,WUHU21623XXSP,2013-02-02 02:27:00,
2013-02-01 21:32:00,26.2,14.6,30.40,WNW,292,0.0,3.0,61,0.00,,,0.00,WUHU21623XXSP,2013-02-02 02:32:00,
2013-02-01 21:37:00,26.2,14.6,30.40,North,0,0.0,3.0,61,0.00,,,0.00,WUHU21623XXSP,2013-02-02 02:37:00,
2013-02-01 21:42:00,26.1,14.8,30.40,North,0,0.0,0.0,62,0.00,,,0.00,WUHU21623XXSP,2013-02-02 02:42:00,
2013-02-01 21:47:00,25.9,14.6,30.40,North,0,0.0,0.0,62,0.00,,,0.00,WUHU21623XXSP,2013-02-02 02:47:00,
2013-02-01 21:52:00,25.7,14.4,30.40,WNW,292,0.0,0.0,62,0.00,,,0.00,WUHU21623XXSP,2013-02-02 02:52:00,
2013-02-01 21:57:00,25.5,14.3,30.40,WNW,292,0.0,0.0,62,0.00,,,0.00,WUHU21623XXSP,2013-02-02 02:57:00,
2013-02-01 22:02:00,25.3,14.1,30.40,East,90,0.0,0.0,62,0.00,,,0.00,WUHU21623XXSP,2013-02-02 03:02:00,
2013-02-01 22:07:00,25.3,14.1,30.40,North,0,0.0,0.0,62,0.00,,,0.00,WUHU21623XXSP,2013-02-02 03:07:00,
2013-02-01 22:12:00,25.2,13.9,30.40,North,0,0.0,0.0,62,0.00,,,0.00,WUHU21623XXSP,2013-02-02 03:12:00,
2013-02-01 22:17:00,25.2,13.9,30.40,WNW,292,0.0,0.0,62,0.00,,,0.00,WUHU21623XXSP,2013-02-02 03:17:00,
2013-02-01 22:22:00,25.0,14.1,30.40,North,0,0.0,0.0,63,0.00,,,0.00,WUHU21623XXSP,2013-02-02 03:22:00,
2013-02-01 22:27:00,25.2,14.3,30.40,WNW,292,0.0,0.0,63,0.00,,,0.00,WUHU21623XXSP,2013-02-02 03:27:00,
2013-02-01 22:32:00,25.0,14.4,30.40,NNE,22,0.0,0.0,64,0.00,,,0.00,WUHU21623XXSP,2013-02-02 03:32:00,
2013-02-01 22:37:00,25.0,14.4,30.40,ESE,112,0.0,0.0,64,0.00,,,0.00,WUHU21623XXSP,2013-02-02 03:37:00,
2013-02-01 22:42:00,25.0,14.8,30.40,East,90,0.0,0.0,65,0.00,,,0.00,WUHU21623XXSP,2013-02-02 03:42:00,
2013-02-01 22:47:00,25.0,14.8,30.40,ESE,112,0.0,0.0,65,0.00,,,0.00,WUHU21623XXSP,2013-02-02 03:47:00,
2013-02-01 22:52:00,24.4,15.0,30.40,East,90,0.0,0.0,67,0.00,,,0.00,WUHU21623XXSP,2013-02-02 03:52:00,
2013-02-01 22:57:00,24.4,15.0,30.40,ESE,112,0.0,0.0,67,0.00,,,0.00,WUHU21623XXSP,2013-02-02 03:57:00,
2013-02-01 23:02:00,24.3,15.2,30.40,East,90,0.0,0.0,68,0.00,,,0.00,WUHU21623XXSP,2013-02-02 04:02:00,
2013-02-01 23:07:00,24.3,15.2,30.40,ESE,112,0.0,0.0,68,0.00,,,0.00,WUHU21623XXSP,2013-02-02 04:07:00,
2013-02-01 23:12:00,24.1,15.0,30.40,ESE,112,0.0,0.0,68,0.00,,,0.00,WUHU21623XXSP,2013-02-02 04:12:00,
2013-02-01 23:17:00,24.1,15.3,30.40,South,180,0.0,0.0,69,0.00,,,0.00,WUHU21623XXSP,2013-02-02 04:17:00,
2013-02-01 23:22:00,24.1,15.0,30.40,ESE,112,0.0,0.0,68,0.00,,,0.00,WUHU21623XXSP,2013-02-02 04:22:00,
2013-02-01 23:27:00,24.1,15.3,30.40,ESE,112,0.0,0.0,69,0.00,,,0.00,WUHU21623XXSP,2013-02-02 04:27:00,
2013-02-01 23:32:00,24.1,15.3,30.40,ESE,112,0.0,0.0,69,0.00,,,0.00,WUHU21623XXSP,2013-02-02 04:32:00,
2013-02-01 23:37:00,23.9,14.8,30.40,ESE,112,0.0,0.0,68,0.00,,,0.00,WUHU21623XXSP,2013-02-02 04:37:00,
2013-02-01 23:42:00,23.9,15.5,30.40,East,90,0.0,0.0,70,0.00,,,0.00,WUHU21623XXSP,2013-02-02 04:42:00,
2013-02-01 23:47:00,23.9,15.2,30.40,ESE,112,2.3,2.7,69,0.00,,,0.00,WUHU21623XXSP,2013-02-02 04:47:00,
2013-02-01 23:52:00,23.7,15.0,30.39,SSW,202,0.0,3.3,69,0.00,,,0.00,WUHU21623XXSP,2013-02-02 04:52:00,
2013-02-01 23:57:00,23.7,15.0,30.39,SSW,202,0.0,3.3,69,0.00,,,0.00,WUHU21623XXSP,2013-02-02 04:57:00,